Buckley Air Force Base
KBKF : rendu visible

Aérodrome :











RETROUVEZ-NOUS SUR...

 
LOGIN :

S'inscrire | Disclaimer

   EN    FR    IT 

 









Légende :    VFR   VFR Marginal   IFR   IFR Intensif   IFR Très Intensif
Visi : 
Plafond : 
>= 8 km
>= 3000ft
5 à 8 km
1000 à 3000 ft
1500m à 5 km
500 à 1000 ft
800 à 1500m
200 à 500 ft
< 800m
< 200 ft
Symboles :   Orages  Brouillard  Fortes neiges  Fortes précipitations  Vent > 20 kt






- Altitude de l'aérodrome : 5662 ft


KBKF - Buckley Air Force Base

DERNIER METAR :
  • 042105Z 08007KT 10SM FEW025 SCT050 SCT120 BKN160 BKN220 24/04 A3005 RMK AO2A SLP104

METARs EXPIRÉS :
  • 042058Z 05004KT 10SM -RA FEW025 SCT050 BKN120 BKN160 BKN220 24/04 A3004 RMK AO2A PK WND 31035/33 RAB22 LTG DSNT SW SLP101 P0000 60000 T02390043
  • 042022Z 31024G30KT 10SM VCTS -RA SCT080 BKN120 BKN170 BKN220 26/04 A3001 RMK AO2A SLP088
  • 041958Z 32011G16KT 10SM VCTS SCT080 SCT130 BKN170 BKN220 31/01 A3000 RMK AO2A PK WND 32026/57 SLP076 T03060010
  • 041858Z 00000KT 10SM FEW080 SCT130 BKN220 30/02 A3000 RMK AO2A LTG DSNT S-W SLP076 T03040017

TAF AMD TAF KBKF
Valide du 04 à 20h jusqu'au 05 à 23h UTC


042008Z 0420/0523 32015KT 9000 -RA BKN150 QNH2995INS
TEMPO 0421/0502 24020G50KT 6000 TSRA BKN140CB 520008
BECMG 0507/0508 24009KT 9999 NSW FEW170 QNH3002INS
BECMG 0521/0522 21009KT 8000 -SHRA BKN160 QNH3005INS TX31/0420Z TN15/0511Z
FIR KZDV / Amérique du Nord



MET'MAP, la Météo Aéronautique d'un coup d'oeil ! - Copyright ORBIFLY Décembre 2007 - Disclaimer

ORBIFLY MET'MAP TEAM :

Programmation & Développement : Alexandra Zaïnal
Sur une idée originale de : Baudouin d'Aumeries
Assistance à la programmation : Marc-Olivier Méhu
Soutien technique & logistique : Manuel Goepfert

Contact : metmap@orbifly.com




SOURCES & CREDITS :

   NOAA       Earth
Advisory